sensor_id;sensor_type;location;lat;lon;timestamp;P1;durP1;ratioP1;P2;durP2;ratioP2
82387;SDS011;72027;47.420;9.310;2024-03-02T00:01:05;10.90;;;7.38;;
82387;SDS011;72027;47.420;9.310;2024-03-02T00:03:34;9.65;;;6.63;;
82387;SDS011;72027;47.420;9.310;2024-03-02T00:06:01;10.77;;;7.05;;
82387;SDS011;72027;47.420;9.310;2024-03-02T00:08:29;9.35;;;6.55;;
82387;SDS011;72027;47.420;9.310;2024-03-02T00:10:57;14.00;;;8.05;;
82387;SDS011;72027;47.420;9.310;2024-03-02T00:13:27;13.90;;;7.25;;
82387;SDS011;72027;47.420;9.310;2024-03-02T00:15:57;10.00;;;7.07;;
82387;SDS011;72027;47.420;9.310;2024-03-02T00:18:26;10.93;;;7.38;;
82387;SDS011;72027;47.420;9.310;2024-03-02T00:20:55;11.45;;;6.65;;
82387;SDS011;72027;47.420;9.310;2024-03-02T00:23:24;11.68;;;7.10;;
82387;SDS011;72027;47.420;9.310;2024-03-02T00:25:55;8.65;;;5.32;;
82387;SDS011;72027;47.420;9.310;2024-03-02T00:28:23;8.18;;;5.65;;
82387;SDS011;72027;47.420;9.310;2024-03-02T00:30:58;12.13;;;6.80;;
82387;SDS011;72027;47.420;9.310;2024-03-02T00:33:27;11.02;;;7.32;;
82387;SDS011;72027;47.420;9.310;2024-03-02T00:35:59;9.05;;;6.00;;
82387;SDS011;72027;47.420;9.310;2024-03-02T00:38:27;9.10;;;6.15;;
82387;SDS011;72027;47.420;9.310;2024-03-02T00:40:56;9.15;;;6.30;;
82387;SDS011;72027;47.420;9.310;2024-03-02T00:48:47;7.25;;;5.00;;
82387;SDS011;72027;47.420;9.310;2024-03-02T00:51:18;6.28;;;5.07;;
82387;SDS011;72027;47.420;9.310;2024-03-02T00:53:46;9.82;;;5.35;;
82387;SDS011;72027;47.420;9.310;2024-03-02T00:56:15;10.40;;;6.03;;
82387;SDS011;72027;47.420;9.310;2024-03-02T00:58:43;6.88;;;5.28;;
82387;SDS011;72027;47.420;9.310;2024-03-02T01:01:10;10.35;;;5.15;;
82387;SDS011;72027;47.420;9.310;2024-03-02T01:03:40;5.72;;;4.25;;
82387;SDS011;72027;47.420;9.310;2024-03-02T01:06:08;7.38;;;4.75;;
82387;SDS011;72027;47.420;9.310;2024-03-02T01:08:36;6.13;;;4.95;;
82387;SDS011;72027;47.420;9.310;2024-03-02T01:11:04;7.00;;;4.50;;
82387;SDS011;72027;47.420;9.310;2024-03-02T01:13:32;7.38;;;5.15;;
82387;SDS011;72027;47.420;9.310;2024-03-02T01:16:00;6.00;;;4.25;;
82387;SDS011;72027;47.420;9.310;2024-03-02T01:18:28;6.70;;;4.60;;
82387;SDS011;72027;47.420;9.310;2024-03-02T01:20:58;6.80;;;4.68;;
82387;SDS011;72027;47.420;9.310;2024-03-02T01:23:26;7.97;;;4.60;;
82387;SDS011;72027;47.420;9.310;2024-03-02T01:25:53;7.20;;;4.65;;
82387;SDS011;72027;47.420;9.310;2024-03-02T01:28:21;5.35;;;3.85;;
82387;SDS011;72027;47.420;9.310;2024-03-02T01:30:49;12.43;;;4.20;;
82387;SDS011;72027;47.420;9.310;2024-03-02T01:33:17;6.82;;;4.10;;
82387;SDS011;72027;47.420;9.310;2024-03-02T01:35:47;6.18;;;4.30;;
82387;SDS011;72027;47.420;9.310;2024-03-02T01:38:16;5.25;;;3.67;;
82387;SDS011;72027;47.420;9.310;2024-03-02T01:40:44;5.82;;;4.15;;
82387;SDS011;72027;47.420;9.310;2024-03-02T01:43:12;7.20;;;4.03;;
82387;SDS011;72027;47.420;9.310;2024-03-02T01:45:39;9.05;;;4.78;;
82387;SDS011;72027;47.420;9.310;2024-03-02T01:48:07;6.22;;;3.88;;
82387;SDS011;72027;47.420;9.310;2024-03-02T01:50:35;5.45;;;3.42;;
82387;SDS011;72027;47.420;9.310;2024-03-02T01:53:03;5.05;;;3.67;;
82387;SDS011;72027;47.420;9.310;2024-03-02T01:55:32;5.55;;;3.50;;
82387;SDS011;72027;47.420;9.310;2024-03-02T01:58:01;4.82;;;3.28;;
82387;SDS011;72027;47.420;9.310;2024-03-02T02:00:29;5.10;;;3.65;;
82387;SDS011;72027;47.420;9.310;2024-03-02T02:02:57;5.72;;;2.92;;
82387;SDS011;72027;47.420;9.310;2024-03-02T02:05:25;5.22;;;3.33;;
82387;SDS011;72027;47.420;9.310;2024-03-02T02:07:52;5.65;;;3.90;;
82387;SDS011;72027;47.420;9.310;2024-03-02T02:10:20;5.70;;;4.15;;
82387;SDS011;72027;47.420;9.310;2024-03-02T02:12:49;5.35;;;3.75;;
82387;SDS011;72027;47.420;9.310;2024-03-02T02:15:21;4.80;;;3.15;;
82387;SDS011;72027;47.420;9.310;2024-03-02T02:17:50;6.35;;;3.78;;
82387;SDS011;72027;47.420;9.310;2024-03-02T02:20:18;12.50;;;5.70;;
82387;SDS011;72027;47.420;9.310;2024-03-02T02:22:57;6.20;;;4.53;;
82387;SDS011;72027;47.420;9.310;2024-03-02T02:25:25;8.77;;;5.25;;
82387;SDS011;72027;47.420;9.310;2024-03-02T02:27:54;9.25;;;5.93;;
82387;SDS011;72027;47.420;9.310;2024-03-02T02:30:23;10.25;;;6.32;;
82387;SDS011;72027;47.420;9.310;2024-03-02T02:32:51;10.05;;;6.18;;
82387;SDS011;72027;47.420;9.310;2024-03-02T02:35:19;11.55;;;5.68;;
82387;SDS011;72027;47.420;9.310;2024-03-02T02:37:47;9.50;;;5.22;;
82387;SDS011;72027;47.420;9.310;2024-03-02T02:40:18;7.65;;;5.22;;
82387;SDS011;72027;47.420;9.310;2024-03-02T02:42:46;7.43;;;4.20;;
82387;SDS011;72027;47.420;9.310;2024-03-02T02:45:14;7.30;;;5.35;;
82387;SDS011;72027;47.420;9.310;2024-03-02T02:47:42;7.65;;;4.65;;
82387;SDS011;72027;47.420;9.310;2024-03-02T02:50:11;9.95;;;5.07;;
82387;SDS011;72027;47.420;9.310;2024-03-02T02:52:41;9.50;;;5.57;;
82387;SDS011;72027;47.420;9.310;2024-03-02T02:55:09;8.70;;;4.95;;
82387;SDS011;72027;47.420;9.310;2024-03-02T02:57:40;9.07;;;5.70;;
82387;SDS011;72027;47.420;9.310;2024-03-02T03:00:10;6.95;;;4.75;;
82387;SDS011;72027;47.420;9.310;2024-03-02T03:02:41;6.57;;;4.18;;
82387;SDS011;72027;47.420;9.310;2024-03-02T03:05:10;7.13;;;4.43;;
82387;SDS011;72027;47.420;9.310;2024-03-02T03:07:38;7.40;;;4.55;;
82387;SDS011;72027;47.420;9.310;2024-03-02T03:10:07;5.72;;;4.18;;
82387;SDS011;72027;47.420;9.310;2024-03-02T03:12:35;6.78;;;4.50;;
82387;SDS011;72027;47.420;9.310;2024-03-02T03:15:05;9.02;;;4.18;;
82387;SDS011;72027;47.420;9.310;2024-03-02T03:17:34;6.20;;;3.88;;
82387;SDS011;72027;47.420;9.310;2024-03-02T03:20:04;6.88;;;4.65;;
82387;SDS011;72027;47.420;9.310;2024-03-02T03:22:35;6.55;;;3.72;;
82387;SDS011;72027;47.420;9.310;2024-03-02T03:25:04;3.90;;;2.88;;
82387;SDS011;72027;47.420;9.310;2024-03-02T03:27:33;5.10;;;3.75;;
82387;SDS011;72027;47.420;9.310;2024-03-02T03:30:01;5.93;;;3.47;;
82387;SDS011;72027;47.420;9.310;2024-03-02T03:32:30;6.93;;;3.70;;
82387;SDS011;72027;47.420;9.310;2024-03-02T03:34:58;4.95;;;3.03;;
82387;SDS011;72027;47.420;9.310;2024-03-02T03:37:26;5.22;;;2.92;;
82387;SDS011;72027;47.420;9.310;2024-03-02T03:39:59;5.70;;;3.40;;
82387;SDS011;72027;47.420;9.310;2024-03-02T03:42:27;5.50;;;3.60;;
82387;SDS011;72027;47.420;9.310;2024-03-02T03:44:55;4.43;;;3.53;;
82387;SDS011;72027;47.420;9.310;2024-03-02T03:47:22;3.70;;;2.58;;
82387;SDS011;72027;47.420;9.310;2024-03-02T03:49:52;5.25;;;3.13;;
82387;SDS011;72027;47.420;9.310;2024-03-02T03:52:19;3.92;;;2.70;;
82387;SDS011;72027;47.420;9.310;2024-03-02T03:54:48;4.95;;;3.03;;
82387;SDS011;72027;47.420;9.310;2024-03-02T03:57:16;5.22;;;3.25;;
82387;SDS011;72027;47.420;9.310;2024-03-02T03:59:44;5.13;;;3.00;;
82387;SDS011;72027;47.420;9.310;2024-03-02T04:02:12;3.95;;;2.53;;
82387;SDS011;72027;47.420;9.310;2024-03-02T04:04:40;3.40;;;2.35;;
82387;SDS011;72027;47.420;9.310;2024-03-02T04:07:09;5.55;;;3.00;;
82387;SDS011;72027;47.420;9.310;2024-03-02T04:09:37;4.95;;;3.80;;
82387;SDS011;72027;47.420;9.310;2024-03-02T04:12:05;3.83;;;2.97;;
82387;SDS011;72027;47.420;9.310;2024-03-02T04:14:33;5.55;;;3.70;;
82387;SDS011;72027;47.420;9.310;2024-03-02T04:17:01;6.25;;;2.92;;
82387;SDS011;72027;47.420;9.310;2024-03-02T04:19:29;7.75;;;3.92;;
82387;SDS011;72027;47.420;9.310;2024-03-02T04:21:56;7.03;;;3.42;;
82387;SDS011;72027;47.420;9.310;2024-03-02T04:24:29;2.97;;;2.63;;
82387;SDS011;72027;47.420;9.310;2024-03-02T04:26:57;3.95;;;3.00;;
82387;SDS011;72027;47.420;9.310;2024-03-02T04:29:25;4.80;;;3.17;;
82387;SDS011;72027;47.420;9.310;2024-03-02T04:31:53;4.00;;;3.28;;
82387;SDS011;72027;47.420;9.310;2024-03-02T04:34:21;5.53;;;3.30;;
82387;SDS011;72027;47.420;9.310;2024-03-02T04:36:49;6.72;;;2.97;;
82387;SDS011;72027;47.420;9.310;2024-03-02T04:39:17;4.35;;;3.35;;
82387;SDS011;72027;47.420;9.310;2024-03-02T04:41:46;4.80;;;3.35;;
82387;SDS011;72027;47.420;9.310;2024-03-02T04:44:14;4.78;;;3.10;;
82387;SDS011;72027;47.420;9.310;2024-03-02T04:46:42;4.15;;;2.80;;
82387;SDS011;72027;47.420;9.310;2024-03-02T04:49:09;4.80;;;3.22;;
82387;SDS011;72027;47.420;9.310;2024-03-02T04:51:37;4.65;;;3.13;;
82387;SDS011;72027;47.420;9.310;2024-03-02T04:54:05;4.10;;;2.42;;
82387;SDS011;72027;47.420;9.310;2024-03-02T04:56:33;4.07;;;2.80;;
82387;SDS011;72027;47.420;9.310;2024-03-02T05:01:39;6.03;;;2.70;;
82387;SDS011;72027;47.420;9.310;2024-03-02T05:04:07;5.88;;;2.90;;
82387;SDS011;72027;47.420;9.310;2024-03-02T05:06:35;4.78;;;2.63;;
82387;SDS011;72027;47.420;9.310;2024-03-02T05:09:02;2.72;;;2.13;;
82387;SDS011;72027;47.420;9.310;2024-03-02T05:11:30;3.88;;;2.63;;
82387;SDS011;72027;47.420;9.310;2024-03-02T05:14:30;2.42;;;2.10;;
82387;SDS011;72027;47.420;9.310;2024-03-02T05:16:58;3.58;;;2.88;;
82387;SDS011;72027;47.420;9.310;2024-03-02T05:19:26;3.65;;;2.53;;
82387;SDS011;72027;47.420;9.310;2024-03-02T05:21:53;5.90;;;3.50;;
82387;SDS011;72027;47.420;9.310;2024-03-02T05:24:21;4.32;;;2.95;;
82387;SDS011;72027;47.420;9.310;2024-03-02T05:26:49;4.10;;;2.80;;
82387;SDS011;72027;47.420;9.310;2024-03-02T05:29:17;4.22;;;2.78;;
82387;SDS011;72027;47.420;9.310;2024-03-02T05:31:46;3.30;;;2.58;;
82387;SDS011;72027;47.420;9.310;2024-03-02T05:34:14;14.07;;;3.13;;
82387;SDS011;72027;47.420;9.310;2024-03-02T05:36:42;9.43;;;4.35;;
82387;SDS011;72027;47.420;9.310;2024-03-02T05:39:09;4.28;;;2.50;;
82387;SDS011;72027;47.420;9.310;2024-03-02T05:41:37;3.10;;;1.92;;
82387;SDS011;72027;47.420;9.310;2024-03-02T05:44:05;4.50;;;2.67;;
82387;SDS011;72027;47.420;9.310;2024-03-02T05:46:33;5.97;;;2.40;;
82387;SDS011;72027;47.420;9.310;2024-03-02T05:49:03;3.10;;;2.10;;
82387;SDS011;72027;47.420;9.310;2024-03-02T05:51:30;3.92;;;2.58;;
82387;SDS011;72027;47.420;9.310;2024-03-02T05:53:58;4.60;;;2.58;;
82387;SDS011;72027;47.420;9.310;2024-03-02T05:56:26;3.15;;;2.15;;
82387;SDS011;72027;47.420;9.310;2024-03-02T05:58:54;4.65;;;2.70;;
82387;SDS011;72027;47.420;9.310;2024-03-02T06:01:34;4.70;;;1.80;;
82387;SDS011;72027;47.420;9.310;2024-03-02T06:04:04;2.55;;;1.88;;
82387;SDS011;72027;47.420;9.310;2024-03-02T06:06:31;3.20;;;2.00;;
82387;SDS011;72027;47.420;9.310;2024-03-02T06:09:00;2.65;;;2.05;;
82387;SDS011;72027;47.420;9.310;2024-03-02T06:11:28;4.82;;;2.58;;
82387;SDS011;72027;47.420;9.310;2024-03-02T06:13:56;4.05;;;2.55;;
82387;SDS011;72027;47.420;9.310;2024-03-02T06:16:24;4.82;;;3.03;;
82387;SDS011;72027;47.420;9.310;2024-03-02T06:18:52;4.05;;;2.72;;
82387;SDS011;72027;47.420;9.310;2024-03-02T06:21:22;3.28;;;2.60;;
82387;SDS011;72027;47.420;9.310;2024-03-02T06:23:49;3.35;;;2.58;;
82387;SDS011;72027;47.420;9.310;2024-03-02T06:26:17;9.43;;;2.85;;
82387;SDS011;72027;47.420;9.310;2024-03-02T06:28:47;3.13;;;2.40;;
82387;SDS011;72027;47.420;9.310;2024-03-02T06:31:15;2.70;;;2.03;;
82387;SDS011;72027;47.420;9.310;2024-03-02T06:33:43;2.38;;;2.10;;
82387;SDS011;72027;47.420;9.310;2024-03-02T06:36:10;3.25;;;2.30;;
82387;SDS011;72027;47.420;9.310;2024-03-02T06:38:40;6.43;;;3.17;;
82387;SDS011;72027;47.420;9.310;2024-03-02T06:41:08;3.25;;;2.20;;
82387;SDS011;72027;47.420;9.310;2024-03-02T06:43:37;4.72;;;2.47;;
82387;SDS011;72027;47.420;9.310;2024-03-02T06:46:05;3.00;;;2.22;;
82387;SDS011;72027;47.420;9.310;2024-03-02T06:48:35;4.75;;;2.33;;
82387;SDS011;72027;47.420;9.310;2024-03-02T06:51:03;3.00;;;1.88;;
82387;SDS011;72027;47.420;9.310;2024-03-02T06:53:31;3.47;;;2.33;;
82387;SDS011;72027;47.420;9.310;2024-03-02T06:56:01;2.50;;;1.73;;
82387;SDS011;72027;47.420;9.310;2024-03-02T06:58:29;2.78;;;1.65;;
82387;SDS011;72027;47.420;9.310;2024-03-02T07:00:57;2.30;;;1.90;;
82387;SDS011;72027;47.420;9.310;2024-03-02T07:03:26;2.75;;;2.15;;
82387;SDS011;72027;47.420;9.310;2024-03-02T07:05:55;8.10;;;2.55;;
82387;SDS011;72027;47.420;9.310;2024-03-02T07:08:23;3.15;;;2.25;;
82387;SDS011;72027;47.420;9.310;2024-03-02T07:10:51;5.65;;;2.55;;
82387;SDS011;72027;47.420;9.310;2024-03-02T07:13:20;4.13;;;2.72;;
82387;SDS011;72027;47.420;9.310;2024-03-02T07:15:48;3.35;;;2.55;;
82387;SDS011;72027;47.420;9.310;2024-03-02T07:18:41;4.38;;;2.20;;
82387;SDS011;72027;47.420;9.310;2024-03-02T07:21:17;4.65;;;3.17;;
82387;SDS011;72027;47.420;9.310;2024-03-02T07:23:45;4.50;;;2.75;;
82387;SDS011;72027;47.420;9.310;2024-03-02T07:26:13;3.40;;;2.38;;
82387;SDS011;72027;47.420;9.310;2024-03-02T07:28:47;2.92;;;2.20;;
82387;SDS011;72027;47.420;9.310;2024-03-02T07:31:15;4.93;;;2.58;;
82387;SDS011;72027;47.420;9.310;2024-03-02T07:33:44;3.13;;;2.38;;
82387;SDS011;72027;47.420;9.310;2024-03-02T07:36:12;3.92;;;2.70;;
82387;SDS011;72027;47.420;9.310;2024-03-02T07:38:40;4.03;;;3.08;;
82387;SDS011;72027;47.420;9.310;2024-03-02T07:41:10;5.70;;;3.38;;
82387;SDS011;72027;47.420;9.310;2024-03-02T07:43:39;6.53;;;3.58;;
82387;SDS011;72027;47.420;9.310;2024-03-02T07:46:08;3.45;;;2.78;;
82387;SDS011;72027;47.420;9.310;2024-03-02T07:48:36;4.95;;;3.10;;
82387;SDS011;72027;47.420;9.310;2024-03-02T07:51:04;4.00;;;3.05;;
82387;SDS011;72027;47.420;9.310;2024-03-02T07:53:32;6.25;;;3.72;;
82387;SDS011;72027;47.420;9.310;2024-03-02T07:55:59;3.83;;;3.00;;
82387;SDS011;72027;47.420;9.310;2024-03-02T07:58:29;7.57;;;3.70;;
82387;SDS011;72027;47.420;9.310;2024-03-02T08:00:58;8.60;;;2.95;;
82387;SDS011;72027;47.420;9.310;2024-03-02T08:03:29;5.78;;;3.15;;
82387;SDS011;72027;47.420;9.310;2024-03-02T08:05:58;13.32;;;4.00;;
82387;SDS011;72027;47.420;9.310;2024-03-02T08:08:26;5.50;;;2.80;;
82387;SDS011;72027;47.420;9.310;2024-03-02T08:10:54;4.07;;;2.88;;
82387;SDS011;72027;47.420;9.310;2024-03-02T08:13:24;5.00;;;3.00;;
82387;SDS011;72027;47.420;9.310;2024-03-02T08:15:52;6.80;;;2.78;;
82387;SDS011;72027;47.420;9.310;2024-03-02T08:18:20;15.63;;;2.97;;
82387;SDS011;72027;47.420;9.310;2024-03-02T08:20:49;5.88;;;3.33;;
82387;SDS011;72027;47.420;9.310;2024-03-02T08:23:17;3.65;;;2.85;;
82387;SDS011;72027;47.420;9.310;2024-03-02T08:25:45;4.57;;;2.72;;
82387;SDS011;72027;47.420;9.310;2024-03-02T08:28:13;5.05;;;3.03;;
82387;SDS011;72027;47.420;9.310;2024-03-02T08:30:41;3.72;;;3.03;;
82387;SDS011;72027;47.420;9.310;2024-03-02T08:33:09;5.53;;;1.95;;
82387;SDS011;72027;47.420;9.310;2024-03-02T08:35:37;4.40;;;2.90;;
82387;SDS011;72027;47.420;9.310;2024-03-02T08:38:06;3.75;;;2.00;;
82387;SDS011;72027;47.420;9.310;2024-03-02T08:40:34;4.32;;;2.45;;
82387;SDS011;72027;47.420;9.310;2024-03-02T08:43:02;2.78;;;1.90;;
82387;SDS011;72027;47.420;9.310;2024-03-02T08:45:29;2.20;;;1.80;;
82387;SDS011;72027;47.420;9.310;2024-03-02T08:47:57;3.28;;;1.90;;
82387;SDS011;72027;47.420;9.310;2024-03-02T08:50:25;5.18;;;1.52;;
82387;SDS011;72027;47.420;9.310;2024-03-02T08:52:53;3.08;;;2.25;;
82387;SDS011;72027;47.420;9.310;2024-03-02T08:55:22;3.17;;;2.03;;
82387;SDS011;72027;47.420;9.310;2024-03-02T08:57:50;1.63;;;1.52;;
82387;SDS011;72027;47.420;9.310;2024-03-02T09:00:18;2.55;;;2.05;;
82387;SDS011;72027;47.420;9.310;2024-03-02T09:02:46;2.78;;;1.70;;
82387;SDS011;72027;47.420;9.310;2024-03-02T09:05:14;1.58;;;1.48;;
82387;SDS011;72027;47.420;9.310;2024-03-02T09:07:43;2.38;;;1.75;;
82387;SDS011;72027;47.420;9.310;2024-03-02T09:10:10;2.05;;;1.77;;
82387;SDS011;72027;47.420;9.310;2024-03-02T09:12:40;3.30;;;2.25;;
82387;SDS011;72027;47.420;9.310;2024-03-02T09:15:08;3.95;;;2.13;;
82387;SDS011;72027;47.420;9.310;2024-03-02T09:17:36;2.90;;;2.22;;
82387;SDS011;72027;47.420;9.310;2024-03-02T09:20:04;2.40;;;2.00;;
82387;SDS011;72027;47.420;9.310;2024-03-02T09:22:32;2.53;;;1.80;;
82387;SDS011;72027;47.420;9.310;2024-03-02T09:25:00;2.35;;;1.80;;
82387;SDS011;72027;47.420;9.310;2024-03-02T09:27:28;2.65;;;2.15;;
82387;SDS011;72027;47.420;9.310;2024-03-02T09:29:57;3.58;;;2.08;;
82387;SDS011;72027;47.420;9.310;2024-03-02T09:32:25;2.83;;;1.52;;
82387;SDS011;72027;47.420;9.310;2024-03-02T09:34:52;2.78;;;1.88;;
82387;SDS011;72027;47.420;9.310;2024-03-02T09:37:22;2.92;;;1.80;;
82387;SDS011;72027;47.420;9.310;2024-03-02T09:39:50;3.03;;;1.50;;
82387;SDS011;72027;47.420;9.310;2024-03-02T09:42:18;1.98;;;1.40;;
82387;SDS011;72027;47.420;9.310;2024-03-02T09:44:49;2.42;;;1.73;;
82387;SDS011;72027;47.420;9.310;2024-03-02T09:47:19;1.90;;;1.45;;
82387;SDS011;72027;47.420;9.310;2024-03-02T09:49:47;2.28;;;1.42;;
82387;SDS011;72027;47.420;9.310;2024-03-02T09:52:15;1.48;;;1.10;;
82387;SDS011;72027;47.420;9.310;2024-03-02T09:54:43;3.00;;;1.73;;
82387;SDS011;72027;47.420;9.310;2024-03-02T09:57:11;1.92;;;1.25;;
82387;SDS011;72027;47.420;9.310;2024-03-02T09:59:39;1.08;;;0.90;;
82387;SDS011;72027;47.420;9.310;2024-03-02T10:02:07;1.10;;;0.85;;
82387;SDS011;72027;47.420;9.310;2024-03-02T10:04:36;1.50;;;1.13;;
82387;SDS011;72027;47.420;9.310;2024-03-02T10:07:11;1.80;;;1.10;;
82387;SDS011;72027;47.420;9.310;2024-03-02T10:09:40;1.08;;;0.98;;
82387;SDS011;72027;47.420;9.310;2024-03-02T10:12:08;0.80;;;0.80;;
82387;SDS011;72027;47.420;9.310;2024-03-02T10:14:37;2.10;;;1.33;;
82387;SDS011;72027;47.420;9.310;2024-03-02T10:17:06;3.13;;;1.10;;
82387;SDS011;72027;47.420;9.310;2024-03-02T10:19:37;0.90;;;0.90;;
82387;SDS011;72027;47.420;9.310;2024-03-02T10:22:06;2.10;;;1.60;;
82387;SDS011;72027;47.420;9.310;2024-03-02T10:24:35;2.88;;;1.60;;
82387;SDS011;72027;47.420;9.310;2024-03-02T10:27:08;2.17;;;1.67;;
82387;SDS011;72027;47.420;9.310;2024-03-02T10:29:37;2.25;;;1.30;;
82387;SDS011;72027;47.420;9.310;2024-03-02T10:32:08;3.33;;;2.03;;
82387;SDS011;72027;47.420;9.310;2024-03-02T10:34:39;2.67;;;2.38;;
82387;SDS011;72027;47.420;9.310;2024-03-02T10:37:08;2.58;;;2.00;;
82387;SDS011;72027;47.420;9.310;2024-03-02T10:39:37;10.77;;;2.90;;
82387;SDS011;72027;47.420;9.310;2024-03-02T10:42:06;3.15;;;2.80;;
82387;SDS011;72027;47.420;9.310;2024-03-02T10:44:35;3.53;;;2.47;;
82387;SDS011;72027;47.420;9.310;2024-03-02T10:47:03;4.00;;;2.38;;
82387;SDS011;72027;47.420;9.310;2024-03-02T10:49:32;3.90;;;2.83;;
82387;SDS011;72027;47.420;9.310;2024-03-02T10:52:02;8.85;;;3.40;;
82387;SDS011;72027;47.420;9.310;2024-03-02T10:54:30;3.45;;;2.78;;
82387;SDS011;72027;47.420;9.310;2024-03-02T10:57:03;4.05;;;2.75;;
82387;SDS011;72027;47.420;9.310;2024-03-02T10:59:36;4.30;;;3.05;;
82387;SDS011;72027;47.420;9.310;2024-03-02T11:02:06;3.80;;;3.10;;
82387;SDS011;72027;47.420;9.310;2024-03-02T11:04:37;3.70;;;2.63;;
82387;SDS011;72027;47.420;9.310;2024-03-02T11:07:09;4.65;;;3.05;;
82387;SDS011;72027;47.420;9.310;2024-03-02T11:09:39;3.70;;;2.60;;
82387;SDS011;72027;47.420;9.310;2024-03-02T11:12:12;6.40;;;2.92;;
82387;SDS011;72027;47.420;9.310;2024-03-02T11:14:50;7.28;;;3.40;;
82387;SDS011;72027;47.420;9.310;2024-03-02T11:17:19;7.35;;;3.13;;
82387;SDS011;72027;47.420;9.310;2024-03-02T11:19:47;4.65;;;2.80;;
82387;SDS011;72027;47.420;9.310;2024-03-02T11:22:17;3.58;;;2.72;;
82387;SDS011;72027;47.420;9.310;2024-03-02T11:24:48;2.45;;;2.13;;
82387;SDS011;72027;47.420;9.310;2024-03-02T11:33:25;3.70;;;2.75;;
82387;SDS011;72027;47.420;9.310;2024-03-02T11:35:56;2.90;;;2.58;;
82387;SDS011;72027;47.420;9.310;2024-03-02T11:38:31;3.53;;;2.78;;
82387;SDS011;72027;47.420;9.310;2024-03-02T11:41:00;2.45;;;2.25;;
82387;SDS011;72027;47.420;9.310;2024-03-02T11:43:29;3.28;;;2.42;;
82387;SDS011;72027;47.420;9.310;2024-03-02T11:45:59;3.42;;;2.65;;
82387;SDS011;72027;47.420;9.310;2024-03-02T11:48:30;5.32;;;3.50;;
82387;SDS011;72027;47.420;9.310;2024-03-02T11:50:59;6.10;;;3.80;;
82387;SDS011;72027;47.420;9.310;2024-03-02T11:53:28;7.18;;;4.43;;
82387;SDS011;72027;47.420;9.310;2024-03-02T11:55:59;11.13;;;6.03;;
82387;SDS011;72027;47.420;9.310;2024-03-02T11:58:29;7.45;;;5.30;;
82387;SDS011;72027;47.420;9.310;2024-03-02T12:00:57;9.85;;;5.68;;
82387;SDS011;72027;47.420;9.310;2024-03-02T12:03:25;9.77;;;5.72;;
82387;SDS011;72027;47.420;9.310;2024-03-02T12:05:54;10.95;;;7.10;;
82387;SDS011;72027;47.420;9.310;2024-03-02T12:08:22;9.70;;;7.00;;
82387;SDS011;72027;47.420;9.310;2024-03-02T12:10:57;8.68;;;6.07;;
82387;SDS011;72027;47.420;9.310;2024-03-02T12:13:28;8.77;;;7.03;;
82387;SDS011;72027;47.420;9.310;2024-03-02T12:15:56;8.45;;;5.80;;
82387;SDS011;72027;47.420;9.310;2024-03-02T12:18:24;10.05;;;6.85;;
82387;SDS011;72027;47.420;9.310;2024-03-02T12:20:53;8.13;;;6.05;;
82387;SDS011;72027;47.420;9.310;2024-03-02T12:23:23;7.97;;;5.63;;
82387;SDS011;72027;47.420;9.310;2024-03-02T12:25:52;7.53;;;5.72;;
82387;SDS011;72027;47.420;9.310;2024-03-02T12:28:20;6.68;;;4.97;;
82387;SDS011;72027;47.420;9.310;2024-03-02T12:30:50;7.85;;;4.70;;
82387;SDS011;72027;47.420;9.310;2024-03-02T12:33:18;4.50;;;3.17;;
82387;SDS011;72027;47.420;9.310;2024-03-02T12:35:48;3.38;;;2.50;;
82387;SDS011;72027;47.420;9.310;2024-03-02T12:38:16;3.72;;;2.80;;
82387;SDS011;72027;47.420;9.310;2024-03-02T12:40:44;4.40;;;2.90;;
82387;SDS011;72027;47.420;9.310;2024-03-02T12:43:12;4.65;;;3.45;;
82387;SDS011;72027;47.420;9.310;2024-03-02T12:45:40;3.22;;;2.58;;
82387;SDS011;72027;47.420;9.310;2024-03-02T12:48:09;4.90;;;2.88;;
82387;SDS011;72027;47.420;9.310;2024-03-02T12:50:37;2.92;;;2.47;;
82387;SDS011;72027;47.420;9.310;2024-03-02T12:53:05;2.83;;;2.47;;
82387;SDS011;72027;47.420;9.310;2024-03-02T12:55:34;3.70;;;2.20;;
82387;SDS011;72027;47.420;9.310;2024-03-02T12:58:02;5.18;;;1.88;;
82387;SDS011;72027;47.420;9.310;2024-03-02T13:00:31;2.50;;;1.38;;
82387;SDS011;72027;47.420;9.310;2024-03-02T13:03:01;1.92;;;1.48;;
82387;SDS011;72027;47.420;9.310;2024-03-02T13:05:31;3.53;;;1.58;;
82387;SDS011;72027;47.420;9.310;2024-03-02T13:07:59;2.08;;;1.65;;
82387;SDS011;72027;47.420;9.310;2024-03-02T13:10:29;2.40;;;1.80;;
82387;SDS011;72027;47.420;9.310;2024-03-02T13:12:58;2.53;;;1.80;;
82387;SDS011;72027;47.420;9.310;2024-03-02T13:15:26;4.20;;;1.60;;
82387;SDS011;72027;47.420;9.310;2024-03-02T13:17:58;2.08;;;1.83;;
82387;SDS011;72027;47.420;9.310;2024-03-02T13:20:29;2.58;;;1.75;;
82387;SDS011;72027;47.420;9.310;2024-03-02T13:22:59;2.45;;;1.80;;
82387;SDS011;72027;47.420;9.310;2024-03-02T13:25:26;3.30;;;1.70;;
82387;SDS011;72027;47.420;9.310;2024-03-02T13:27:56;3.40;;;1.38;;
82387;SDS011;72027;47.420;9.310;2024-03-02T13:30:24;4.28;;;1.85;;
82387;SDS011;72027;47.420;9.310;2024-03-02T13:32:52;3.65;;;1.60;;
82387;SDS011;72027;47.420;9.310;2024-03-02T13:35:20;2.45;;;1.40;;
82387;SDS011;72027;47.420;9.310;2024-03-02T13:37:49;2.70;;;1.48;;
82387;SDS011;72027;47.420;9.310;2024-03-02T13:40:17;2.33;;;1.75;;
82387;SDS011;72027;47.420;9.310;2024-03-02T13:42:46;3.80;;;1.30;;
82387;SDS011;72027;47.420;9.310;2024-03-02T13:45:14;1.58;;;1.23;;
82387;SDS011;72027;47.420;9.310;2024-03-02T13:47:43;2.13;;;1.60;;
82387;SDS011;72027;47.420;9.310;2024-03-02T13:50:11;1.70;;;1.20;;
82387;SDS011;72027;47.420;9.310;2024-03-02T13:52:39;1.65;;;1.48;;
82387;SDS011;72027;47.420;9.310;2024-03-02T13:55:08;1.58;;;1.25;;
82387;SDS011;72027;47.420;9.310;2024-03-02T13:57:36;2.20;;;2.00;;
82387;SDS011;72027;47.420;9.310;2024-03-02T14:00:05;3.90;;;1.35;;
82387;SDS011;72027;47.420;9.310;2024-03-02T14:02:38;4.68;;;1.63;;
82387;SDS011;72027;47.420;9.310;2024-03-02T14:05:06;3.03;;;1.50;;
82387;SDS011;72027;47.420;9.310;2024-03-02T14:07:37;0.98;;;0.98;;
82387;SDS011;72027;47.420;9.310;2024-03-02T14:10:05;1.42;;;1.30;;
82387;SDS011;72027;47.420;9.310;2024-03-02T14:12:35;2.20;;;1.20;;
82387;SDS011;72027;47.420;9.310;2024-03-02T14:15:03;1.80;;;1.60;;
82387;SDS011;72027;47.420;9.310;2024-03-02T14:17:32;1.33;;;1.23;;
82387;SDS011;72027;47.420;9.310;2024-03-02T14:20:01;4.57;;;1.50;;
82387;SDS011;72027;47.420;9.310;2024-03-02T14:22:31;1.30;;;1.20;;
82387;SDS011;72027;47.420;9.310;2024-03-02T14:25:00;5.05;;;1.65;;
82387;SDS011;72027;47.420;9.310;2024-03-02T14:27:28;1.67;;;1.13;;
82387;SDS011;72027;47.420;9.310;2024-03-02T14:30:05;1.25;;;1.15;;
82387;SDS011;72027;47.420;9.310;2024-03-02T14:32:34;1.65;;;1.33;;
82387;SDS011;72027;47.420;9.310;2024-03-02T14:35:02;3.00;;;1.40;;
82387;SDS011;72027;47.420;9.310;2024-03-02T14:37:30;1.60;;;1.27;;
82387;SDS011;72027;47.420;9.310;2024-03-02T14:39:58;1.33;;;1.23;;
82387;SDS011;72027;47.420;9.310;2024-03-02T14:42:26;3.90;;;1.33;;
82387;SDS011;72027;47.420;9.310;2024-03-02T14:44:57;1.63;;;1.38;;
82387;SDS011;72027;47.420;9.310;2024-03-02T14:47:27;2.05;;;1.33;;
82387;SDS011;72027;47.420;9.310;2024-03-02T14:49:54;2.10;;;1.40;;
82387;SDS011;72027;47.420;9.310;2024-03-02T14:52:23;2.00;;;1.77;;
82387;SDS011;72027;47.420;9.310;2024-03-02T14:54:50;1.48;;;1.00;;
82387;SDS011;72027;47.420;9.310;2024-03-02T14:57:18;1.65;;;1.20;;
82387;SDS011;72027;47.420;9.310;2024-03-02T14:59:46;1.70;;;1.42;;
82387;SDS011;72027;47.420;9.310;2024-03-02T15:02:14;1.55;;;1.10;;
82387;SDS011;72027;47.420;9.310;2024-03-02T15:04:43;1.77;;;1.40;;
82387;SDS011;72027;47.420;9.310;2024-03-02T15:07:11;2.47;;;1.30;;
82387;SDS011;72027;47.420;9.310;2024-03-02T15:09:39;1.33;;;1.10;;
82387;SDS011;72027;47.420;9.310;2024-03-02T15:12:07;1.27;;;1.05;;